Lewek Scarlet — 9WNC6 — position and weather

sailwx.info

Track history (hours):
 
Tides and Currents Weather Stations Pressure Air Temp Water Temp Dewpoint Dewpoint Depression Visibility Wind Speed Wind Dir Waves Ship Positions

Lewek Scarlet

Last reported at 2017-Oct-19 16:52 UTC. Time now 2017-Oct-20 13:59 UTC.
Position N 04°36' W 002°53'.

Length 74 m; draft 5.5 m.

Type: Cargo ship. MMSI: 533180001.

Date/timePositionNaut miles runAvg speedWind from/ knotsBaromVisibWave heightAir tempDewpointWater temp
2017-Oct-19 16:52N 04°36' W 002°53'1 2.2
2017-Oct-19 16:29N 04°36' W 002°53'0 0.0
2017-Oct-19 15:59N 04°36' W 002°53'0 0.2
2017-Oct-19 15:30N 04°36' W 002°53'0 0.0
2017-Oct-19 15:00N 04°36' W 002°53'0 0.1
2017-Oct-19 14:29N 04°36' W 002°53'0 0.2
2017-Oct-19 13:58N 04°36' W 002°53'0 0.3
2017-Oct-19 13:27N 04°36' W 002°53'1 2.8
2017-Oct-19 12:57N 04°37' W 002°53'48 1.4
2017-Oct-18 02:19N 04°38' W 002°05'4 6.9
2017-Oct-18 01:41N 04°39' W 002°01'1 6.9
2017-Oct-18 01:30N 04°40' W 001°59'4 7.1
2017-Oct-18 01:00N 04°42' W 001°56'4 7.2
2017-Oct-18 00:29N 04°44' W 001°53'3 7.0
2017-Oct-18 00:00N 04°46' W 001°51'4 7.2
2017-Oct-17 23:30N 04°48' W 001°48'4 7.2
2017-Oct-17 23:00N 04°51' W 001°45'3 6.2
2017-Oct-17 22:29N 04°53' W 001°43'1 2.1
2017-Oct-17 21:56N 04°53' W 001°44'0 0.0
2017-Oct-17 21:29N 04°53' W 001°44'0 0.0
2017-Oct-17 20:59N 04°53' W 001°44'0 0.0
2017-Oct-17 20:29N 04°53' W 001°44'0 0.0
2017-Oct-17 19:59N 04°53' W 001°44'0 0.0
2017-Oct-17 19:29N 04°53' W 001°44'0 0.0
2017-Oct-17 18:59N 04°53' W 001°44'0 0.0
2017-Oct-17 18:29N 04°53' W 001°44'0 0.0
2017-Oct-17 17:59N 04°53' W 001°44'0 0.5
2017-Oct-17 17:29N 04°53' W 001°44'1 2.2
2017-Oct-17 16:59N 04°54' W 001°44'0 0.3
2017-Oct-17 16:29N 04°54' W 001°44'1 1.8
2017-Oct-17 16:00N 04°55' W 001°43'0 0.1
2017-Oct-17 15:30N 04°55' W 001°43'0 0.0
2017-Oct-17 15:00N 04°55' W 001°43'0 0.0
2017-Oct-17 14:30N 04°55' W 001°43'0 0.0
2017-Oct-17 14:00N 04°55' W 001°43'0 0.0
2017-Oct-17 13:30N 04°55' W 001°43'0 0.0
2017-Oct-17 13:00N 04°55' W 001°43'0 0.0
2017-Oct-17 12:30N 04°55' W 001°43'0 0.0
2017-Oct-17 12:00N 04°55' W 001°43'0 0.0
2017-Oct-17 11:30N 04°55' W 001°43'0 0.0
2017-Oct-17 11:00N 04°55' W 001°43'0 0.0
2017-Oct-17 10:30N 04°55' W 001°43'0 0.0
2017-Oct-17 10:00N 04°55' W 001°43'0 0.0
2017-Oct-17 09:30N 04°55' W 001°43'0 0.0
2017-Oct-17 09:00N 04°55' W 001°43'0 0.0
2017-Oct-17 08:30N 04°55' W 001°43'0 0.0
2017-Oct-17 08:00N 04°55' W 001°43'0 0.0
2017-Oct-17 07:30N 04°55' W 001°43'0 0.0
2017-Oct-17 07:00N 04°55' W 001°43'0 0.0
2017-Oct-17 06:30N 04°55' W 001°43'0 0.0
2017-Oct-17 06:00N 04°55' W 001°43'0 0.0
2017-Oct-17 05:30N 04°55' W 001°43'0 0.0
2017-Oct-17 05:00N 04°55' W 001°43'0 0.0
2017-Oct-17 04:30N 04°55' W 001°43'0 0.0
2017-Oct-17 04:00N 04°55' W 001°43'0 0.0
2017-Oct-17 03:15N 04°55' W 001°43'0 0.0
2017-Oct-17 03:00N 04°55' W 001°43'0 0.0
2017-Oct-17 02:30N 04°55' W 001°43'0 0.0
2017-Oct-17 02:00N 04°55' W 001°43'0 0.0
2017-Oct-17 01:30N 04°55' W 001°43'0 0.0
2017-Oct-17 01:00N 04°55' W 001°43'0 0.0
2017-Oct-17 00:30N 04°55' W 001°43'0 0.0
2017-Oct-17 00:00N 04°55' W 001°43'0 0.0
2017-Oct-16 23:30N 04°55' W 001°43'0 0.0
2017-Oct-16 23:00N 04°55' W 001°43'0 0.0
2017-Oct-16 22:30N 04°55' W 001°43'0 0.0
2017-Oct-16 22:00N 04°55' W 001°43'0 0.0
2017-Oct-16 21:30N 04°55' W 001°43'0 0.0
2017-Oct-16 21:00N 04°55' W 001°43'0 0.0
2017-Oct-16 20:30N 04°55' W 001°43'0 0.0
2017-Oct-16 20:00N 04°55' W 001°43'0 0.0
2017-Oct-16 19:30N 04°55' W 001°43'0 0.0
2017-Oct-16 19:00N 04°55' W 001°43'0 0.0
2017-Oct-16 18:30N 04°55' W 001°43'0 0.0
2017-Oct-16 18:00N 04°55' W 001°43'0 0.0
2017-Oct-16 17:30N 04°55' W 001°43'0 0.0
2017-Oct-16 16:59N 04°55' W 001°43'0 0.0
2017-Oct-16 16:29N 04°55' W 001°43'0 0.0
2017-Oct-16 15:59N 04°55' W 001°43'0 0.0
2017-Oct-16 15:29N 04°55' W 001°43'0 0.0
2017-Oct-16 14:59N 04°55' W 001°43'0 0.0
2017-Oct-16 14:00N 04°55' W 001°43'0 0.0
2017-Oct-16 13:29N 04°55' W 001°43'0 0.0
2017-Oct-16 12:59N 04°55' W 001°43'0 0.0
2017-Oct-16 12:29N 04°55' W 001°43'0 0.0
2017-Oct-16 12:00N 04°55' W 001°43'0 0.0
2017-Oct-16 11:30N 04°55' W 001°43'0 0.0
2017-Oct-16 10:59N 04°55' W 001°43'2 4.2
2017-Oct-16 10:29N 04°53' W 001°44'0 0.3
2017-Oct-16 10:00N 04°53' W 001°44'0 0.0
2017-Oct-16 09:30N 04°53' W 001°44'0 0.0
2017-Oct-16 09:00N 04°53' W 001°44'0 0.0
2017-Oct-16 08:30N 04°53' W 001°44'39 2.4
2017-Oct-15 16:13N 04°37' W 002°20'2 7.5
2017-Oct-15 15:59N 04°36' W 002°22'4 7.4
2017-Oct-15 15:30N 04°36' W 002°26'4 7.5
2017-Oct-15 15:00N 04°36' W 002°29'8 7.5
2017-Oct-15 13:59N 04°36' W 002°37'4 7.5
2017-Oct-15 13:29N 04°36' W 002°41'4 7.5
2017-Oct-15 12:58N 04°36' W 002°45'4 7.5
2017-Oct-15 12:30N 04°36' W 002°48'4 7.1
2017-Oct-15 11:59N 04°36' W 002°52'1 3.0
2017-Oct-15 11:29N 04°36' W 002°53'0 0.0
2017-Oct-15 10:59N 04°36' W 002°53'0 0.1
2017-Oct-15 10:10N 04°36' W 002°53'0 0.1
2017-Oct-15 08:33N 04°36' W 002°53'0 0.1
2017-Oct-15 08:27N 04°36' W 002°53'1 1.0
2017-Oct-15 07:58N 04°36' W 002°54'0 0.1
2017-Oct-15 07:30N 04°36' W 002°54'2 2.8
2017-Oct-15 06:57N 04°34' W 002°53'1 2.2
2017-Oct-15 06:29N 04°34' W 002°52'0 0.2
2017-Oct-15 06:00N 04°34' W 002°52'0 1.0
2017-Oct-15 05:30N 04°34' W 002°53'0 0.9
2017-Oct-15 05:00N 04°35' W 002°53'0 0.9
2017-Oct-15 04:29N 04°35' W 002°53'0 0.9
2017-Oct-15 03:59N 04°35' W 002°54'0 0.8
2017-Oct-15 03:30N 04°36' W 002°54'0 0.7
2017-Oct-15 02:59N 04°36' W 002°54'0 0.7
2017-Oct-15 02:29N 04°36' W 002°54'0 1.0
2017-Oct-15 02:00N 04°36' W 002°55'1 2.0
2017-Oct-15 01:30N 04°35' W 002°56'0 0.6
2017-Oct-15 00:59N 04°35' W 002°55'0 0.7
2017-Oct-15 00:29N 04°35' W 002°55'0 0.5
2017-Oct-14 23:59N 04°36' W 002°55'0 0.5
2017-Oct-14 23:30N 04°36' W 002°55'0 0.5
2017-Oct-14 22:59N 04°36' W 002°55'0 0.4
2017-Oct-14 22:30N 04°36' W 002°55'0 0.8
2017-Oct-14 22:01N 04°35' W 002°55'0 0.8
2017-Oct-14 21:30N 04°35' W 002°54'0 0.7
2017-Oct-14 21:00N 04°35' W 002°54'0 0.6
2017-Oct-14 20:29N 04°35' W 002°54'0 0.1
2017-Oct-14 20:00N 04°35' W 002°54'0 0.6
2017-Oct-14 19:29N 04°34' W 002°54'0 0.7
2017-Oct-14 19:00N 04°34' W 002°54'0 0.2
2017-Oct-14 18:29N 04°34' W 002°54'0 0.3
2017-Oct-14 17:58N 04°34' W 002°54'0 0.3
2017-Oct-14 17:29N 04°34' W 002°54'0 0.4
2017-Oct-14 16:57N 04°35' W 002°54'0 0.5
2017-Oct-14 16:30N 04°35' W 002°54'0 0.4
2017-Oct-14 16:00N 04°35' W 002°54'0 0.5
2017-Oct-14 15:28N 04°35' W 002°54'0 0.5
2017-Oct-14 14:45N 04°35' W 002°54'0 0.3
2017-Oct-14 14:29N 04°35' W 002°54'1 0.2
2017-Oct-14 11:52N 04°36' W 002°53'1 2.7
2017-Oct-14 11:29N 04°36' W 002°54'2 4.1
2017-Oct-14 10:59N 04°36' W 002°56'3 6.9
2017-Oct-14 10:29N 04°36' W 002°59'9 4.1
2017-Oct-14 08:13N 04°35' W 003°08'0 0.9
2017-Oct-14 07:58N 04°35' W 003°08'0 0.0
2017-Oct-14 07:29N 04°35' W 003°08'0 0.2
2017-Oct-14 06:59N 04°35' W 003°08'0 1.0
2017-Oct-14 06:29N 04°36' W 003°08'14 5.8
2017-Oct-14 04:03N 04°35' W 002°54'1 7.8
2017-Oct-14 03:58N 04°35' W 002°53'4 7.9
2017-Oct-14 03:29N 04°35' W 002°49'4 7.8
2017-Oct-14 02:59N 04°35' W 002°45'4 7.8
2017-Oct-14 02:29N 04°36' W 002°41'4 7.8
2017-Oct-14 01:58N 04°36' W 002°37'4 7.8
2017-Oct-14 01:30N 04°36' W 002°34'4 8.0
2017-Oct-14 01:00N 04°37' W 002°30'4 7.9
2017-Oct-14 00:30N 04°37' W 002°26'4 7.7
2017-Oct-14 00:00N 04°38' W 002°22'4 7.6
2017-Oct-13 23:29N 04°38' W 002°18'4 7.7
2017-Oct-13 23:00N 04°38' W 002°14'4 7.4
2017-Oct-13 22:30N 04°39' W 002°11'4 7.2
2017-Oct-13 22:00N 04°39' W 002°07'4 7.0
2017-Oct-13 21:29N 04°39' W 002°04'5 0.1
2017-Oct-12 00:03N 04°39' W 002°08'1 6.3
2017-Oct-11 23:54N 04°39' W 002°09'4 6.1
2017-Oct-11 23:19N 04°39' W 002°13'2 6.1
2017-Oct-11 23:00N 04°39' W 002°15'3 6.1
2017-Oct-11 22:30N 04°39' W 002°18'3 6.2
2017-Oct-11 21:59N 04°39' W 002°21'3 6.0
2017-Oct-11 21:29N 04°39' W 002°24'3 6.0
2017-Oct-11 20:59N 04°39' W 002°27'3 6.1
2017-Oct-11 20:30N 04°38' W 002°30'3 6.1
2017-Oct-11 19:59N 04°38' W 002°33'3 6.4
2017-Oct-11 19:29N 04°38' W 002°36'3 6.5
2017-Oct-11 18:58N 04°38' W 002°40'3 6.5
2017-Oct-11 18:30N 04°38' W 002°43'3 6.5
2017-Oct-11 17:59N 04°38' W 002°46'3 6.4
2017-Oct-11 17:29N 04°37' W 002°49'3 6.8
2017-Oct-11 17:00N 04°37' W 002°53'1 0.1
2017-Oct-11 00:00N 04°36' W 002°51'0 0.5
2017-Oct-10 23:30N 04°36' W 002°52'0 0.5
2017-Oct-10 22:59N 04°37' W 002°52'0 0.5
2017-Oct-10 22:29N 04°37' W 002°52'0 0.5
2017-Oct-10 22:00N 04°37' W 002°52'0 0.5
2017-Oct-10 21:30N 04°37' W 002°52'0 0.5
2017-Oct-10 21:00N 04°37' W 002°52'0 0.4
2017-Oct-10 20:29N 04°37' W 002°52'0 0.4
2017-Oct-10 19:59N 04°37' W 002°53'0 0.4
2017-Oct-10 19:30N 04°38' W 002°53'0 0.3
2017-Oct-10 19:00N 04°38' W 002°53'0 0.2
2017-Oct-10 18:30N 04°38' W 002°53'0 0.4
2017-Oct-10 17:59N 04°38' W 002°53'0 0.5
2017-Oct-10 17:29N 04°38' W 002°53'0 0.7
2017-Oct-10 16:59N 04°38' W 002°53'1 0.9
2017-Oct-10 16:18N 04°38' W 002°53'0 0.7
2017-Oct-10 16:00N 04°38' W 002°53'0 0.8
2017-Oct-10 15:30N 04°37' W 002°53'1 1.3
2017-Oct-10 14:59N 04°37' W 002°54'1 0.8
2017-Oct-10 13:59N 04°36' W 002°54'0 0.6
2017-Oct-10 13:29N 04°36' W 002°53'0 0.0
2017-Oct-10 12:59N 04°36' W 002°53'0 0.7
2017-Oct-10 12:29N 04°36' W 002°54'1 1.3
2017-Oct-10 11:59N 04°35' W 002°54'1 2.5
2017-Oct-10 11:31N 04°34' W 002°55'0 0.8
2017-Oct-10 11:00N 04°34' W 002°55'0 0.9
2017-Oct-10 10:29N 04°34' W 002°55'1 1.2
2017-Oct-10 10:00N 04°35' W 002°55'2 3.9
2017-Oct-10 09:30N 04°35' W 002°57'6 7.3
2017-Oct-10 08:39N 04°35' W 003°03'1 7.3
2017-Oct-10 08:27N 04°35' W 003°04'4 7.2
2017-Oct-10 07:54N 04°35' W 003°08'0 0.6
2017-Oct-10 07:30N 04°35' W 003°08'0 0.0
2017-Oct-10 06:54N 04°35' W 003°08'0 0.0
2017-Oct-10 06:29N 04°35' W 003°08'1 0.3
2017-Oct-10 02:02N 04°36' W 003°07'0 0.2
2017-Oct-10 01:56N 04°36' W 003°07'0 0.2
2017-Oct-10 01:26N 04°36' W 003°08'0 0.2
2017-Oct-10 00:59N 04°36' W 003°08'0 0.1
2017-Oct-09 23:39N 04°36' W 003°08'0 0.2
2017-Oct-09 23:25N 04°36' W 003°08'0 0.2
2017-Oct-09 22:20N 04°36' W 003°08'0 0.2
2017-Oct-09 22:00N 04°37' W 003°08'0 0.5
2017-Oct-09 21:30N 04°36' W 003°08'0 0.9
2017-Oct-09 20:59N 04°36' W 003°07'0 0.8
2017-Oct-09 20:29N 04°36' W 003°07'0 0.6
2017-Oct-09 19:59N 04°35' W 003°07'0 0.6
2017-Oct-09 19:29N 04°35' W 003°08'0 0.4
2017-Oct-09 19:00N 04°35' W 003°08'0 0.5
2017-Oct-09 18:30N 04°35' W 003°08'  
Track history (hours):
 
Tides and Currents Weather Stations Pressure Air Temp Water Temp Dewpoint Dewpoint Depression Visibility Wind Speed Wind Dir Waves Ship Positions

Lewek Scarlet

Last reported at 2017-Oct-19 16:52 UTC. Time now 2017-Oct-20 13:59 UTC.
Position N 04°36' W 002°53'.

Length 74 m; draft 5.5 m.

Type: Cargo ship. MMSI: 533180001.

Date/timePositionNaut miles runAvg speedWind from/ knotsBaromVisibWave heightAir tempDewpointWater temp
2017-Oct-19 16:52N 04°36' W 002°53'1 2.2
2017-Oct-19 16:29N 04°36' W 002°53'0 0.0
2017-Oct-19 15:59N 04°36' W 002°53'0 0.2
2017-Oct-19 15:30N 04°36' W 002°53'0 0.0
2017-Oct-19 15:00N 04°36' W 002°53'0 0.1
2017-Oct-19 14:29N 04°36' W 002°53'0 0.2
2017-Oct-19 13:58N 04°36' W 002°53'0 0.3
2017-Oct-19 13:27N 04°36' W 002°53'1 2.8
2017-Oct-19 12:57N 04°37' W 002°53'48 1.4
2017-Oct-18 02:19N 04°38' W 002°05'4 6.9
2017-Oct-18 01:41N 04°39' W 002°01'1 6.9
2017-Oct-18 01:30N 04°40' W 001°59'4 7.1
2017-Oct-18 01:00N 04°42' W 001°56'4 7.2
2017-Oct-18 00:29N 04°44' W 001°53'3 7.0
2017-Oct-18 00:00N 04°46' W 001°51'4 7.2
2017-Oct-17 23:30N 04°48' W 001°48'4 7.2
2017-Oct-17 23:00N 04°51' W 001°45'3 6.2
2017-Oct-17 22:29N 04°53' W 001°43'1 2.1
2017-Oct-17 21:56N 04°53' W 001°44'0 0.0
2017-Oct-17 21:29N 04°53' W 001°44'0 0.0
2017-Oct-17 20:59N 04°53' W 001°44'0 0.0
2017-Oct-17 20:29N 04°53' W 001°44'0 0.0
2017-Oct-17 19:59N 04°53' W 001°44'0 0.0
2017-Oct-17 19:29N 04°53' W 001°44'0 0.0
2017-Oct-17 18:59N 04°53' W 001°44'0 0.0
2017-Oct-17 18:29N 04°53' W 001°44'0 0.0
2017-Oct-17 17:59N 04°53' W 001°44'0 0.5
2017-Oct-17 17:29N 04°53' W 001°44'1 2.2
2017-Oct-17 16:59N 04°54' W 001°44'0 0.3
2017-Oct-17 16:29N 04°54' W 001°44'1 1.8
2017-Oct-17 16:00N 04°55' W 001°43'0 0.1
2017-Oct-17 15:30N 04°55' W 001°43'0 0.0
2017-Oct-17 15:00N 04°55' W 001°43'0 0.0
2017-Oct-17 14:30N 04°55' W 001°43'0 0.0
2017-Oct-17 14:00N 04°55' W 001°43'0 0.0
2017-Oct-17 13:30N 04°55' W 001°43'0 0.0
2017-Oct-17 13:00N 04°55' W 001°43'0 0.0
2017-Oct-17 12:30N 04°55' W 001°43'0 0.0
2017-Oct-17 12:00N 04°55' W 001°43'0 0.0
2017-Oct-17 11:30N 04°55' W 001°43'0 0.0
2017-Oct-17 11:00N 04°55' W 001°43'0 0.0
2017-Oct-17 10:30N 04°55' W 001°43'0 0.0
2017-Oct-17 10:00N 04°55' W 001°43'0 0.0
2017-Oct-17 09:30N 04°55' W 001°43'0 0.0
2017-Oct-17 09:00N 04°55' W 001°43'0 0.0
2017-Oct-17 08:30N 04°55' W 001°43'0 0.0
2017-Oct-17 08:00N 04°55' W 001°43'0 0.0
2017-Oct-17 07:30N 04°55' W 001°43'0 0.0
2017-Oct-17 07:00N 04°55' W 001°43'0 0.0
2017-Oct-17 06:30N 04°55' W 001°43'0 0.0
2017-Oct-17 06:00N 04°55' W 001°43'0 0.0
2017-Oct-17 05:30N 04°55' W 001°43'0 0.0
2017-Oct-17 05:00N 04°55' W 001°43'0 0.0
2017-Oct-17 04:30N 04°55' W 001°43'0 0.0
2017-Oct-17 04:00N 04°55' W 001°43'0 0.0
2017-Oct-17 03:15N 04°55' W 001°43'0 0.0
2017-Oct-17 03:00N 04°55' W 001°43'0 0.0
2017-Oct-17 02:30N 04°55' W 001°43'0 0.0
2017-Oct-17 02:00N 04°55' W 001°43'0 0.0
2017-Oct-17 01:30N 04°55' W 001°43'0 0.0
2017-Oct-17 01:00N 04°55' W 001°43'0 0.0
2017-Oct-17 00:30N 04°55' W 001°43'0 0.0
2017-Oct-17 00:00N 04°55' W 001°43'0 0.0
2017-Oct-16 23:30N 04°55' W 001°43'0 0.0
2017-Oct-16 23:00N 04°55' W 001°43'0 0.0
2017-Oct-16 22:30N 04°55' W 001°43'0 0.0
2017-Oct-16 22:00N 04°55' W 001°43'0 0.0
2017-Oct-16 21:30N 04°55' W 001°43'0 0.0
2017-Oct-16 21:00N 04°55' W 001°43'0 0.0
2017-Oct-16 20:30N 04°55' W 001°43'0 0.0
2017-Oct-16 20:00N 04°55' W 001°43'0 0.0
2017-Oct-16 19:30N 04°55' W 001°43'0 0.0
2017-Oct-16 19:00N 04°55' W 001°43'0 0.0
2017-Oct-16 18:30N 04°55' W 001°43'0 0.0
2017-Oct-16 18:00N 04°55' W 001°43'0 0.0
2017-Oct-16 17:30N 04°55' W 001°43'0 0.0
2017-Oct-16 16:59N 04°55' W 001°43'0 0.0
2017-Oct-16 16:29N 04°55' W 001°43'0 0.0
2017-Oct-16 15:59N 04°55' W 001°43'0 0.0
2017-Oct-16 15:29N 04°55' W 001°43'0 0.0
2017-Oct-16 14:59N 04°55' W 001°43'0 0.0
2017-Oct-16 14:00N 04°55' W 001°43'0 0.0
2017-Oct-16 13:29N 04°55' W 001°43'0 0.0
2017-Oct-16 12:59N 04°55' W 001°43'0 0.0
2017-Oct-16 12:29N 04°55' W 001°43'0 0.0
2017-Oct-16 12:00N 04°55' W 001°43'0 0.0
2017-Oct-16 11:30N 04°55' W 001°43'0 0.0
2017-Oct-16 10:59N 04°55' W 001°43'2 4.2
2017-Oct-16 10:29N 04°53' W 001°44'0 0.3
2017-Oct-16 10:00N 04°53' W 001°44'0 0.0
2017-Oct-16 09:30N 04°53' W 001°44'0 0.0
2017-Oct-16 09:00N 04°53' W 001°44'0 0.0
2017-Oct-16 08:30N 04°53' W 001°44'39 2.4
2017-Oct-15 16:13N 04°37' W 002°20'2 7.5
2017-Oct-15 15:59N 04°36' W 002°22'4 7.4
2017-Oct-15 15:30N 04°36' W 002°26'4 7.5
2017-Oct-15 15:00N 04°36' W 002°29'8 7.5
2017-Oct-15 13:59N 04°36' W 002°37'4 7.5
2017-Oct-15 13:29N 04°36' W 002°41'4 7.5
2017-Oct-15 12:58N 04°36' W 002°45'4 7.5
2017-Oct-15 12:30N 04°36' W 002°48'4 7.1
2017-Oct-15 11:59N 04°36' W 002°52'1 3.0
2017-Oct-15 11:29N 04°36' W 002°53'0 0.0
2017-Oct-15 10:59N 04°36' W 002°53'0 0.1
2017-Oct-15 10:10N 04°36' W 002°53'0 0.1
2017-Oct-15 08:33N 04°36' W 002°53'0 0.1
2017-Oct-15 08:27N 04°36' W 002°53'1 1.0
2017-Oct-15 07:58N 04°36' W 002°54'0 0.1
2017-Oct-15 07:30N 04°36' W 002°54'2 2.8
2017-Oct-15 06:57N 04°34' W 002°53'1 2.2
2017-Oct-15 06:29N 04°34' W 002°52'0 0.2
2017-Oct-15 06:00N 04°34' W 002°52'0 1.0
2017-Oct-15 05:30N 04°34' W 002°53'0 0.9
2017-Oct-15 05:00N 04°35' W 002°53'0 0.9
2017-Oct-15 04:29N 04°35' W 002°53'0 0.9
2017-Oct-15 03:59N 04°35' W 002°54'0 0.8
2017-Oct-15 03:30N 04°36' W 002°54'0 0.7
2017-Oct-15 02:59N 04°36' W 002°54'0 0.7
2017-Oct-15 02:29N 04°36' W 002°54'0 1.0
2017-Oct-15 02:00N 04°36' W 002°55'1 2.0
2017-Oct-15 01:30N 04°35' W 002°56'0 0.6
2017-Oct-15 00:59N 04°35' W 002°55'0 0.7
2017-Oct-15 00:29N 04°35' W 002°55'0 0.5
2017-Oct-14 23:59N 04°36' W 002°55'0 0.5
2017-Oct-14 23:30N 04°36' W 002°55'0 0.5
2017-Oct-14 22:59N 04°36' W 002°55'0 0.4
2017-Oct-14 22:30N 04°36' W 002°55'0 0.8
2017-Oct-14 22:01N 04°35' W 002°55'0 0.8
2017-Oct-14 21:30N 04°35' W 002°54'0 0.7
2017-Oct-14 21:00N 04°35' W 002°54'0 0.6
2017-Oct-14 20:29N 04°35' W 002°54'0 0.1
2017-Oct-14 20:00N 04°35' W 002°54'0 0.6
2017-Oct-14 19:29N 04°34' W 002°54'0 0.7
2017-Oct-14 19:00N 04°34' W 002°54'0 0.2
2017-Oct-14 18:29N 04°34' W 002°54'0 0.3
2017-Oct-14 17:58N 04°34' W 002°54'0 0.3
2017-Oct-14 17:29N 04°34' W 002°54'0 0.4
2017-Oct-14 16:57N 04°35' W 002°54'0 0.5
2017-Oct-14 16:30N 04°35' W 002°54'0 0.4
2017-Oct-14 16:00N 04°35' W 002°54'0 0.5
2017-Oct-14 15:28N 04°35' W 002°54'0 0.5
2017-Oct-14 14:45N 04°35' W 002°54'0 0.3
2017-Oct-14 14:29N 04°35' W 002°54'1 0.2
2017-Oct-14 11:52N 04°36' W 002°53'1 2.7
2017-Oct-14 11:29N 04°36' W 002°54'2 4.1
2017-Oct-14 10:59N 04°36' W 002°56'3 6.9
2017-Oct-14 10:29N 04°36' W 002°59'9 4.1
2017-Oct-14 08:13N 04°35' W 003°08'0 0.9
2017-Oct-14 07:58N 04°35' W 003°08'0 0.0
2017-Oct-14 07:29N 04°35' W 003°08'0 0.2
2017-Oct-14 06:59N 04°35' W 003°08'0 1.0
2017-Oct-14 06:29N 04°36' W 003°08'14 5.8
2017-Oct-14 04:03N 04°35' W 002°54'1 7.8
2017-Oct-14 03:58N 04°35' W 002°53'4 7.9
2017-Oct-14 03:29N 04°35' W 002°49'4 7.8
2017-Oct-14 02:59N 04°35' W 002°45'4 7.8
2017-Oct-14 02:29N 04°36' W 002°41'4 7.8
2017-Oct-14 01:58N 04°36' W 002°37'4 7.8
2017-Oct-14 01:30N 04°36' W 002°34'4 8.0
2017-Oct-14 01:00N 04°37' W 002°30'4 7.9
2017-Oct-14 00:30N 04°37' W 002°26'4 7.7
2017-Oct-14 00:00N 04°38' W 002°22'4 7.6
2017-Oct-13 23:29N 04°38' W 002°18'4 7.7
2017-Oct-13 23:00N 04°38' W 002°14'4 7.4
2017-Oct-13 22:30N 04°39' W 002°11'4 7.2
2017-Oct-13 22:00N 04°39' W 002°07'4 7.0
2017-Oct-13 21:29N 04°39' W 002°04'5 0.1
2017-Oct-12 00:03N 04°39' W 002°08'1 6.3
2017-Oct-11 23:54N 04°39' W 002°09'4 6.1
2017-Oct-11 23:19N 04°39' W 002°13'2 6.1
2017-Oct-11 23:00N 04°39' W 002°15'3 6.1
2017-Oct-11 22:30N 04°39' W 002°18'3 6.2
2017-Oct-11 21:59N 04°39' W 002°21'3 6.0
2017-Oct-11 21:29N 04°39' W 002°24'3 6.0
2017-Oct-11 20:59N 04°39' W 002°27'3 6.1
2017-Oct-11 20:30N 04°38' W 002°30'3 6.1
2017-Oct-11 19:59N 04°38' W 002°33'3 6.4
2017-Oct-11 19:29N 04°38' W 002°36'3 6.5
2017-Oct-11 18:58N 04°38' W 002°40'3 6.5
2017-Oct-11 18:30N 04°38' W 002°43'3 6.5
2017-Oct-11 17:59N 04°38' W 002°46'3 6.4
2017-Oct-11 17:29N 04°37' W 002°49'3 6.8
2017-Oct-11 17:00N 04°37' W 002°53'1 0.1
2017-Oct-11 00:00N 04°36' W 002°51'0 0.5
2017-Oct-10 23:30N 04°36' W 002°52'0 0.5
2017-Oct-10 22:59N 04°37' W 002°52'0 0.5
2017-Oct-10 22:29N 04°37' W 002°52'0 0.5
2017-Oct-10 22:00N 04°37' W 002°52'0 0.5
2017-Oct-10 21:30N 04°37' W 002°52'0 0.5
2017-Oct-10 21:00N 04°37' W 002°52'0 0.4
2017-Oct-10 20:29N 04°37' W 002°52'0 0.4
2017-Oct-10 19:59N 04°37' W 002°53'0 0.4
2017-Oct-10 19:30N 04°38' W 002°53'0 0.3
2017-Oct-10 19:00N 04°38' W 002°53'0 0.2
2017-Oct-10 18:30N 04°38' W 002°53'0 0.4
2017-Oct-10 17:59N 04°38' W 002°53'0 0.5
2017-Oct-10 17:29N 04°38' W 002°53'0 0.7
2017-Oct-10 16:59N 04°38' W 002°53'1 0.9
2017-Oct-10 16:18N 04°38' W 002°53'0 0.7
2017-Oct-10 16:00N 04°38' W 002°53'0 0.8
2017-Oct-10 15:30N 04°37' W 002°53'1 1.3
2017-Oct-10 14:59N 04°37' W 002°54'1 0.8
2017-Oct-10 13:59N 04°36' W 002°54'0 0.6
2017-Oct-10 13:29N 04°36' W 002°53'0 0.0
2017-Oct-10 12:59N 04°36' W 002°53'0 0.7
2017-Oct-10 12:29N 04°36' W 002°54'1 1.3
2017-Oct-10 11:59N 04°35' W 002°54'1 2.5
2017-Oct-10 11:31N 04°34' W 002°55'0 0.8
2017-Oct-10 11:00N 04°34' W 002°55'0 0.9
2017-Oct-10 10:29N 04°34' W 002°55'1 1.2
2017-Oct-10 10:00N 04°35' W 002°55'2 3.9
2017-Oct-10 09:30N 04°35' W 002°57'6 7.3
2017-Oct-10 08:39N 04°35' W 003°03'1 7.3
2017-Oct-10 08:27N 04°35' W 003°04'4 7.2
2017-Oct-10 07:54N 04°35' W 003°08'0 0.6
2017-Oct-10 07:30N 04°35' W 003°08'0 0.0
2017-Oct-10 06:54N 04°35' W 003°08'0 0.0
2017-Oct-10 06:29N 04°35' W 003°08'1 0.3
2017-Oct-10 02:02N 04°36' W 003°07'0 0.2
2017-Oct-10 01:56N 04°36' W 003°07'0 0.2
2017-Oct-10 01:26N 04°36' W 003°08'0 0.2
2017-Oct-10 00:59N 04°36' W 003°08'0 0.1
2017-Oct-09 23:39N 04°36' W 003°08'0 0.2
2017-Oct-09 23:25N 04°36' W 003°08'0 0.2
2017-Oct-09 22:20N 04°36' W 003°08'0 0.2
2017-Oct-09 22:00N 04°37' W 003°08'0 0.5
2017-Oct-09 21:30N 04°36' W 003°08'0 0.9
2017-Oct-09 20:59N 04°36' W 003°07'0 0.8
2017-Oct-09 20:29N 04°36' W 003°07'0 0.6
2017-Oct-09 19:59N 04°35' W 003°07'0 0.6
2017-Oct-09 19:29N 04°35' W 003°08'0 0.4
2017-Oct-09 19:00N 04°35' W 003°08'0 0.5
2017-Oct-09 18:30N 04°35' W 003°08'  

Dump ship's entire track history